sensor_id;sensor_type;location;lat;lon;timestamp;pressure;altitude;pressure_sealevel;temperature;humidity
37298;BME280;30517;51.932;4.278;2023-04-24T00:00:33;99877.75;;;13.70;58.45
37298;BME280;30517;51.932;4.278;2023-04-24T00:03:14;99956.00;;;14.11;58.58
37298;BME280;30517;51.932;4.278;2023-04-24T00:05:55;99961.19;;;14.14;58.78
37298;BME280;30517;51.932;4.278;2023-04-24T00:08:35;99970.91;;;14.15;58.29
37298;BME280;30517;51.932;4.278;2023-04-24T00:11:16;99941.38;;;13.98;58.52
37298;BME280;30517;51.932;4.278;2023-04-24T00:13:57;99917.91;;;13.86;58.51
37298;BME280;30517;51.932;4.278;2023-04-24T00:16:38;99947.50;;;14.00;58.26
37298;BME280;30517;51.932;4.278;2023-04-24T00:19:19;99970.09;;;14.13;58.66
37298;BME280;30517;51.932;4.278;2023-04-24T00:22:02;99974.53;;;14.13;58.35
37298;BME280;30517;51.932;4.278;2023-04-24T00:24:43;99982.53;;;14.11;58.54
37298;BME280;30517;51.932;4.278;2023-04-24T00:27:24;99916.41;;;13.77;58.58
37298;BME280;30517;51.932;4.278;2023-04-24T00:30:06;99935.53;;;13.87;58.47
37298;BME280;30517;51.932;4.278;2023-04-24T00:32:47;99909.59;;;13.68;58.51
37298;BME280;30517;51.932;4.278;2023-04-24T00:35:27;99970.28;;;14.07;58.52
37298;BME280;30517;51.932;4.278;2023-04-24T00:38:08;99964.44;;;13.96;58.62
37298;BME280;30517;51.932;4.278;2023-04-24T00:40:49;99960.66;;;14.03;58.48
37298;BME280;30517;51.932;4.278;2023-04-24T00:43:30;99940.81;;;13.88;58.05
37298;BME280;30517;51.932;4.278;2023-04-24T00:46:11;99968.63;;;14.03;58.65
37298;BME280;30517;51.932;4.278;2023-04-24T00:48:53;99940.91;;;13.85;58.86
37298;BME280;30517;51.932;4.278;2023-04-24T00:51:34;99965.22;;;14.00;58.54
37298;BME280;30517;51.932;4.278;2023-04-24T00:54:15;99971.38;;;14.00;58.49
37298;BME280;30517;51.932;4.278;2023-04-24T00:56:56;99898.34;;;13.60;58.33
37298;BME280;30517;51.932;4.278;2023-04-24T00:59:37;99920.03;;;13.75;58.15
37298;BME280;30517;51.932;4.278;2023-04-24T01:02:19;99932.97;;;13.85;58.44
37298;BME280;30517;51.932;4.278;2023-04-24T01:05:01;99955.81;;;13.88;58.27
37298;BME280;30517;51.932;4.278;2023-04-24T01:07:43;99951.84;;;13.75;58.80
37298;BME280;30517;51.932;4.278;2023-04-24T01:10:27;99972.44;;;13.94;58.32
37298;BME280;30517;51.932;4.278;2023-04-24T01:13:08;99981.31;;;13.93;58.41
37298;BME280;30517;51.932;4.278;2023-04-24T01:15:49;99902.91;;;13.55;58.66
37298;BME280;30517;51.932;4.278;2023-04-24T01:18:30;99875.13;;;13.39;58.63
37298;BME280;30517;51.932;4.278;2023-04-24T01:21:13;99949.13;;;13.76;58.36
37298;BME280;30517;51.932;4.278;2023-04-24T01:23:55;99969.00;;;13.91;58.54
37298;BME280;30517;51.932;4.278;2023-04-24T01:26:36;99920.41;;;13.61;58.46
37298;BME280;30517;51.932;4.278;2023-04-24T01:29:17;99918.00;;;13.53;58.05
37298;BME280;30517;51.932;4.278;2023-04-24T01:31:58;99929.31;;;13.58;58.44
37298;BME280;30517;51.932;4.278;2023-04-24T01:34:40;99969.06;;;13.88;58.43
37298;BME280;30517;51.932;4.278;2023-04-24T01:37:21;99964.69;;;13.87;58.36
37298;BME280;30517;51.932;4.278;2023-04-24T01:40:02;99912.63;;;13.56;58.33
37298;BME280;30517;51.932;4.278;2023-04-24T01:42:45;99929.00;;;13.69;58.47
37298;BME280;30517;51.932;4.278;2023-04-24T01:45:28;99956.84;;;13.84;58.11
37298;BME280;30517;51.932;4.278;2023-04-24T01:48:09;99917.00;;;13.57;58.33
37298;BME280;30517;51.932;4.278;2023-04-24T01:50:50;99948.16;;;13.79;58.37
37298;BME280;30517;51.932;4.278;2023-04-24T01:53:30;99939.69;;;13.66;58.44
37298;BME280;30517;51.932;4.278;2023-04-24T01:56:11;99925.78;;;13.59;58.56
37298;BME280;30517;51.932;4.278;2023-04-24T01:58:53;99867.63;;;13.23;58.69
37298;BME280;30517;51.932;4.278;2023-04-24T02:01:35;99863.50;;;13.13;58.35
37298;BME280;30517;51.932;4.278;2023-04-24T02:04:16;99948.56;;;13.65;58.72
37298;BME280;30517;51.932;4.278;2023-04-24T02:06:57;99943.31;;;13.63;58.64
37298;BME280;30517;51.932;4.278;2023-04-24T02:09:37;99899.06;;;13.36;59.14
37298;BME280;30517;51.932;4.278;2023-04-24T02:12:18;99966.84;;;13.74;58.43
37298;BME280;30517;51.932;4.278;2023-04-24T02:14:59;99945.91;;;13.65;58.73
37298;BME280;30517;51.932;4.278;2023-04-24T02:17:40;99940.84;;;13.57;58.74
37298;BME280;30517;51.932;4.278;2023-04-24T02:20:21;99953.00;;;13.64;58.53
37298;BME280;30517;51.932;4.278;2023-04-24T02:23:02;99886.31;;;13.17;58.54
37298;BME280;30517;51.932;4.278;2023-04-24T02:25:43;99730.06;;;12.27;58.34
37298;BME280;30517;51.932;4.278;2023-04-24T02:28:23;99987.31;;;13.69;58.54
37298;BME280;30517;51.932;4.278;2023-04-24T02:31:04;99973.19;;;13.68;58.71
37298;BME280;30517;51.932;4.278;2023-04-24T02:33:46;99982.06;;;13.67;59.00
37298;BME280;30517;51.932;4.278;2023-04-24T02:36:27;99982.06;;;13.67;58.57
37298;BME280;30517;51.932;4.278;2023-04-24T02:39:08;99958.63;;;13.54;58.84
37298;BME280;30517;51.932;4.278;2023-04-24T02:41:48;99975.94;;;13.65;58.70
37298;BME280;30517;51.932;4.278;2023-04-24T02:44:29;99885.66;;;13.09;58.93
37298;BME280;30517;51.932;4.278;2023-04-24T02:47:10;99886.59;;;13.08;58.66
37298;BME280;30517;51.932;4.278;2023-04-24T02:49:51;99976.88;;;13.63;58.76
37298;BME280;30517;51.932;4.278;2023-04-24T02:52:32;99916.53;;;13.10;58.86
37298;BME280;30517;51.932;4.278;2023-04-24T02:55:12;99985.75;;;13.62;58.82
37298;BME280;30517;51.932;4.278;2023-04-24T02:57:53;99986.63;;;13.62;59.05
37298;BME280;30517;51.932;4.278;2023-04-24T03:00:34;99941.44;;;13.36;58.83
37298;BME280;30517;51.932;4.278;2023-04-24T03:03:15;99936.22;;;13.34;58.79
37298;BME280;30517;51.932;4.278;2023-04-24T03:05:56;99955.22;;;13.48;58.70
37298;BME280;30517;51.932;4.278;2023-04-24T03:08:37;99963.81;;;13.57;58.77
37298;BME280;30517;51.932;4.278;2023-04-24T03:11:18;99944.41;;;13.56;58.80
37298;BME280;30517;51.932;4.278;2023-04-24T03:13:59;99928.09;;;13.40;58.46
37298;BME280;30517;51.932;4.278;2023-04-24T03:16:40;99891.50;;;13.20;58.86
37298;BME280;30517;51.932;4.278;2023-04-24T03:19:20;99963.91;;;13.54;58.26
37298;BME280;30517;51.932;4.278;2023-04-24T03:22:02;99888.31;;;13.09;58.20
37298;BME280;30517;51.932;4.278;2023-04-24T03:24:43;99897.91;;;13.13;58.56
37298;BME280;30517;51.932;4.278;2023-04-24T03:27:24;99915.41;;;13.19;58.63
37298;BME280;30517;51.932;4.278;2023-04-24T03:30:06;99978.13;;;13.51;58.50
37298;BME280;30517;51.932;4.278;2023-04-24T03:32:47;99985.22;;;13.49;58.49
37298;BME280;30517;51.932;4.278;2023-04-24T03:35:28;99983.50;;;13.48;58.93
37298;BME280;30517;51.932;4.278;2023-04-24T03:38:09;99969.75;;;13.34;58.62
37298;BME280;30517;51.932;4.278;2023-04-24T03:40:50;99980.28;;;13.37;58.85
37298;BME280;30517;51.932;4.278;2023-04-24T03:43:31;99978.50;;;13.37;59.06
37298;BME280;30517;51.932;4.278;2023-04-24T03:46:13;99978.53;;;13.36;58.51
37298;BME280;30517;51.932;4.278;2023-04-24T03:48:55;99990.63;;;13.44;58.57
37298;BME280;30517;51.932;4.278;2023-04-24T03:51:35;99968.94;;;13.32;58.53
37298;BME280;30517;51.932;4.278;2023-04-24T03:54:16;99956.81;;;13.21;58.83
37298;BME280;30517;51.932;4.278;2023-04-24T03:56:57;100005.75;;;13.41;58.71
37298;BME280;30517;51.932;4.278;2023-04-24T03:59:38;99991.09;;;13.29;58.31
37298;BME280;30517;51.932;4.278;2023-04-24T04:02:19;99982.53;;;13.18;58.61
37298;BME280;30517;51.932;4.278;2023-04-24T04:05:00;100041.06;;;13.41;59.13
37298;BME280;30517;51.932;4.278;2023-04-24T04:07:40;100019.09;;;13.38;59.20
37298;BME280;30517;51.932;4.278;2023-04-24T04:10:21;99937.75;;;12.74;59.04
37298;BME280;30517;51.932;4.278;2023-04-24T04:13:02;99997.09;;;13.00;58.58
37298;BME280;30517;51.932;4.278;2023-04-24T04:15:43;100029.22;;;13.20;59.37
37298;BME280;30517;51.932;4.278;2023-04-24T04:18:24;99934.69;;;12.57;58.54
37298;BME280;30517;51.932;4.278;2023-04-24T04:21:04;100038.09;;;13.19;59.10
37298;BME280;30517;51.932;4.278;2023-04-24T04:23:45;99988.59;;;12.87;58.99
37298;BME280;30517;51.932;4.278;2023-04-24T04:26:26;100012.25;;;12.93;59.42
37298;BME280;30517;51.932;4.278;2023-04-24T04:29:07;100084.59;;;13.31;59.16
37298;BME280;30517;51.932;4.278;2023-04-24T04:31:48;100091.59;;;13.34;59.02
37298;BME280;30517;51.932;4.278;2023-04-24T04:34:28;100111.97;;;13.32;58.38
37298;BME280;30517;51.932;4.278;2023-04-24T04:37:09;100127.88;;;13.32;58.91
37298;BME280;30517;51.932;4.278;2023-04-24T04:39:51;100135.81;;;13.32;59.05
37298;BME280;30517;51.932;4.278;2023-04-24T04:42:33;100097.38;;;13.14;58.54
37298;BME280;30517;51.932;4.278;2023-04-24T04:45:14;100076.63;;;12.58;61.34
37298;BME280;30517;51.932;4.278;2023-04-24T04:47:56;100141.88;;;12.98;61.11
37298;BME280;30517;51.932;4.278;2023-04-24T04:50:37;100153.19;;;13.04;60.41
37298;BME280;30517;51.932;4.278;2023-04-24T04:53:18;100183.13;;;13.08;60.71
37298;BME280;30517;51.932;4.278;2023-04-24T04:55:59;100184.75;;;13.12;60.09
37298;BME280;30517;51.932;4.278;2023-04-24T04:58:40;100138.44;;;12.93;59.68
37298;BME280;30517;51.932;4.278;2023-04-24T05:01:21;100092.44;;;12.61;59.64
37298;BME280;30517;51.932;4.278;2023-04-24T05:04:03;100108.03;;;12.73;60.06
37298;BME280;30517;51.932;4.278;2023-04-24T05:06:44;100166.72;;;12.91;59.57
37298;BME280;30517;51.932;4.278;2023-04-24T05:09:25;100138.69;;;12.83;59.28
37298;BME280;30517;51.932;4.278;2023-04-24T05:12:07;100200.59;;;13.15;59.16
37298;BME280;30517;51.932;4.278;2023-04-24T05:14:48;100109.34;;;12.54;59.63
37298;BME280;30517;51.932;4.278;2023-04-24T05:17:29;100229.78;;;13.12;59.02
37298;BME280;30517;51.932;4.278;2023-04-24T05:20:10;100200.03;;;13.01;59.51
37298;BME280;30517;51.932;4.278;2023-04-24T05:22:50;100238.56;;;13.14;59.20
37298;BME280;30517;51.932;4.278;2023-04-24T05:25:31;100224.63;;;13.06;58.84
37298;BME280;30517;51.932;4.278;2023-04-24T05:28:15;100250.94;;;13.14;59.33
37298;BME280;30517;51.932;4.278;2023-04-24T05:30:56;100246.72;;;13.05;59.15
37298;BME280;30517;51.932;4.278;2023-04-24T05:33:37;100254.69;;;13.03;59.49
37298;BME280;30517;51.932;4.278;2023-04-24T05:36:18;100173.69;;;12.56;58.76
37298;BME280;30517;51.932;4.278;2023-04-24T05:38:58;100268.72;;;13.09;58.88
37298;BME280;30517;51.932;4.278;2023-04-24T05:41:39;100264.63;;;12.94;58.79
37298;BME280;30517;51.932;4.278;2023-04-24T05:44:20;100290.81;;;13.07;58.95
37298;BME280;30517;51.932;4.278;2023-04-24T05:47:01;100241.28;;;12.71;58.67
37298;BME280;30517;51.932;4.278;2023-04-24T05:49:42;100300.56;;;13.04;59.38
37298;BME280;30517;51.932;4.278;2023-04-24T05:52:23;100203.03;;;12.44;58.60
37298;BME280;30517;51.932;4.278;2023-04-24T05:55:04;100318.28;;;13.02;59.04
37298;BME280;30517;51.932;4.278;2023-04-24T05:57:45;100311.34;;;12.95;58.81
37298;BME280;30517;51.932;4.278;2023-04-24T06:00:27;100347.41;;;13.00;59.02
37298;BME280;30517;51.932;4.278;2023-04-24T06:03:08;100290.63;;;12.72;59.20
37298;BME280;30517;51.932;4.278;2023-04-24T06:05:50;100345.69;;;12.99;58.90
37298;BME280;30517;51.932;4.278;2023-04-24T06:08:31;100361.56;;;12.99;59.30
37298;BME280;30517;51.932;4.278;2023-04-24T06:11:12;100345.00;;;12.90;59.19
37298;BME280;30517;51.932;4.278;2023-04-24T06:13:53;100282.28;;;12.48;59.15
37298;BME280;30517;51.932;4.278;2023-04-24T06:16:34;100360.78;;;12.94;59.28
37298;BME280;30517;51.932;4.278;2023-04-24T06:19:15;100385.47;;;12.96;59.17
37298;BME280;30517;51.932;4.278;2023-04-24T06:21:56;100358.56;;;12.71;58.68
37298;BME280;30517;51.932;4.278;2023-04-24T06:24:37;100392.56;;;12.94;58.98
37298;BME280;30517;51.932;4.278;2023-04-24T06:27:18;100398.72;;;12.95;58.70
37298;BME280;30517;51.932;4.278;2023-04-24T06:29:59;100329.81;;;12.53;59.37
37298;BME280;30517;51.932;4.278;2023-04-24T06:32:39;100391.16;;;12.75;58.93
37298;BME280;30517;51.932;4.278;2023-04-24T06:35:20;100410.25;;;12.92;59.13
37298;BME280;30517;51.932;4.278;2023-04-24T06:38:01;100420.84;;;12.91;58.79
37298;BME280;30517;51.932;4.278;2023-04-24T06:40:42;100410.44;;;12.81;58.80
37298;BME280;30517;51.932;4.278;2023-04-24T06:43:23;100332.06;;;12.26;59.25
37298;BME280;30517;51.932;4.278;2023-04-24T06:46:04;100372.25;;;12.47;59.21
37298;BME280;30517;51.932;4.278;2023-04-24T06:48:45;100444.72;;;12.88;59.26
37298;BME280;30517;51.932;4.278;2023-04-24T06:51:26;100421.22;;;12.71;58.66
37298;BME280;30517;51.932;4.278;2023-04-24T06:54:07;100363.69;;;12.31;59.02
37298;BME280;30517;51.932;4.278;2023-04-24T06:56:51;100416.97;;;12.60;59.31
37298;BME280;30517;51.932;4.278;2023-04-24T06:59:32;100467.06;;;12.71;59.00
37298;BME280;30517;51.932;4.278;2023-04-24T07:02:13;100415.53;;;12.43;58.91
37298;BME280;30517;51.932;4.278;2023-04-24T07:04:54;100466.25;;;12.69;58.52
37298;BME280;30517;51.932;4.278;2023-04-24T07:07:35;100442.69;;;12.52;58.85
37298;BME280;30517;51.932;4.278;2023-04-24T07:10:17;100506.56;;;12.83;59.30
37298;BME280;30517;51.932;4.278;2023-04-24T07:12:58;100489.16;;;12.69;59.15
37298;BME280;30517;51.932;4.278;2023-04-24T07:15:39;100491.75;;;12.72;59.37
37298;BME280;30517;51.932;4.278;2023-04-24T07:18:22;100514.69;;;12.73;59.08
37298;BME280;30517;51.932;4.278;2023-04-24T07:21:03;100543.69;;;12.80;59.04
37298;BME280;30517;51.932;4.278;2023-04-24T07:23:44;100522.53;;;12.79;58.57
37298;BME280;30517;51.932;4.278;2023-04-24T07:26:25;100525.22;;;12.77;58.82
37298;BME280;30517;51.932;4.278;2023-04-24T07:29:07;100519.91;;;12.77;59.20
37298;BME280;30517;51.932;4.278;2023-04-24T07:31:49;100525.38;;;12.67;59.22
37298;BME280;30517;51.932;4.278;2023-04-24T07:34:30;100524.59;;;12.60;59.04
37298;BME280;30517;51.932;4.278;2023-04-24T07:37:11;100540.34;;;12.68;59.16
37298;BME280;30517;51.932;4.278;2023-04-24T07:39:52;100441.59;;;12.11;58.83
37298;BME280;30517;51.932;4.278;2023-04-24T07:42:32;100575.53;;;12.74;58.39
37298;BME280;30517;51.932;4.278;2023-04-24T07:45:14;100526.44;;;12.55;58.93
37298;BME280;30517;51.932;4.278;2023-04-24T07:47:58;100536.97;;;12.58;59.63
37298;BME280;30517;51.932;4.278;2023-04-24T07:50:39;100587.88;;;12.75;58.71
37298;BME280;30517;51.932;4.278;2023-04-24T07:53:20;100531.78;;;12.52;58.68
37298;BME280;30517;51.932;4.278;2023-04-24T07:56:01;100517.84;;;12.40;59.10
37298;BME280;30517;51.932;4.278;2023-04-24T07:58:42;100595.88;;;12.72;58.40
37298;BME280;30517;51.932;4.278;2023-04-24T08:01:23;100515.28;;;12.34;58.33
37298;BME280;30517;51.932;4.278;2023-04-24T08:04:04;100464.66;;;11.99;58.43
37298;BME280;30517;51.932;4.278;2023-04-24T08:06:44;100521.56;;;12.27;58.90
37298;BME280;30517;51.932;4.278;2023-04-24T08:09:25;100567.91;;;12.54;58.86
37298;BME280;30517;51.932;4.278;2023-04-24T08:12:06;100538.25;;;12.32;59.08
37298;BME280;30517;51.932;4.278;2023-04-24T08:14:47;100558.44;;;12.39;58.65
37298;BME280;30517;51.932;4.278;2023-04-24T08:17:28;100581.94;;;12.58;58.70
37298;BME280;30517;51.932;4.278;2023-04-24T08:20:10;100625.03;;;12.69;58.77
37298;BME280;30517;51.932;4.278;2023-04-24T08:22:53;100629.47;;;12.67;58.48
37298;BME280;30517;51.932;4.278;2023-04-24T08:25:35;100612.75;;;12.62;58.19
37298;BME280;30517;51.932;4.278;2023-04-24T08:28:16;100629.47;;;12.67;58.52
37298;BME280;30517;51.932;4.278;2023-04-24T08:31:00;100614.59;;;12.55;58.47
37298;BME280;30517;51.932;4.278;2023-04-24T08:33:41;100644.53;;;12.62;58.36
37298;BME280;30517;51.932;4.278;2023-04-24T08:36:21;100569.25;;;12.20;58.22
37298;BME280;30517;51.932;4.278;2023-04-24T08:39:02;100616.72;;;12.30;58.58
37298;BME280;30517;51.932;4.278;2023-04-24T08:41:44;100599.13;;;12.29;57.98
37298;BME280;30517;51.932;4.278;2023-04-24T08:44:25;100635.97;;;12.42;58.01
37298;BME280;30517;51.932;4.278;2023-04-24T08:47:07;100619.22;;;12.41;58.73
37298;BME280;30517;51.932;4.278;2023-04-24T08:49:49;100665.69;;;12.60;58.27
37298;BME280;30517;51.932;4.278;2023-04-24T08:52:33;100668.44;;;12.56;58.92
37298;BME280;30517;51.932;4.278;2023-04-24T08:55:15;100665.84;;;12.50;58.28
37298;BME280;30517;51.932;4.278;2023-04-24T08:57:59;100688.59;;;11.84;57.34
37298;BME280;30517;51.932;4.278;2023-04-24T09:00:40;100657.59;;;11.03;60.00
37298;BME280;30517;51.932;4.278;2023-04-24T09:03:27;100675.66;;;11.57;59.03
37298;BME280;30517;51.932;4.278;2023-04-24T09:06:10;100681.56;;;11.83;59.07
37298;BME280;30517;51.932;4.278;2023-04-24T09:08:53;100690.09;;;12.11;58.35
37298;BME280;30517;51.932;4.278;2023-04-24T09:11:36;100690.88;;;12.21;58.22
37298;BME280;30517;51.932;4.278;2023-04-24T09:14:18;100654.13;;;12.00;58.21
37298;BME280;30517;51.932;4.278;2023-04-24T09:17:00;100709.25;;;12.33;58.25
37298;BME280;30517;51.932;4.278;2023-04-24T09:19:41;100695.97;;;12.36;58.61
37298;BME280;30517;51.932;4.278;2023-04-24T09:22:22;100654.13;;;12.00;57.91
37298;BME280;30517;51.932;4.278;2023-04-24T09:25:07;100678.53;;;12.22;58.34
37298;BME280;30517;51.932;4.278;2023-04-24T09:27:49;100706.50;;;12.43;57.84
37298;BME280;30517;51.932;4.278;2023-04-24T09:30:30;100667.06;;;12.23;57.85
37298;BME280;30517;51.932;4.278;2023-04-24T09:33:15;100709.97;;;12.45;58.38
37298;BME280;30517;51.932;4.278;2023-04-24T09:35:56;100715.28;;;12.48;58.24
37298;BME280;30517;51.932;4.278;2023-04-24T09:38:38;100716.13;;;12.47;58.12
37298;BME280;30517;51.932;4.278;2023-04-24T09:41:19;100734.66;;;12.47;57.81
37298;BME280;30517;51.932;4.278;2023-04-24T09:44:14;100724.09;;;12.47;58.36
37298;BME280;30517;51.932;4.278;2023-04-24T09:46:57;100720.59;;;12.42;58.19
37298;BME280;30517;51.932;4.278;2023-04-24T09:49:38;100748.84;;;12.43;58.33
37298;BME280;30517;51.932;4.278;2023-04-24T09:52:21;100682.00;;;12.25;57.76
37298;BME280;30517;51.932;4.278;2023-04-24T09:55:02;100741.63;;;12.54;58.36
37298;BME280;30517;51.932;4.278;2023-04-24T09:58:01;100729.44;;;12.40;58.51
37298;BME280;30517;51.932;4.278;2023-04-24T10:00:45;100736.56;;;12.37;58.28
37298;BME280;30517;51.932;4.278;2023-04-24T10:03:29;100766.53;;;12.36;58.52
37298;BME280;30517;51.932;4.278;2023-04-24T10:06:12;100784.84;;;12.56;58.09
37298;BME280;30517;51.932;4.278;2023-04-24T10:08:53;100733.94;;;12.32;58.14
37298;BME280;30517;51.932;4.278;2023-04-24T10:11:34;100777.84;;;12.50;58.68
37298;BME280;30517;51.932;4.278;2023-04-24T10:14:20;100767.19;;;12.56;58.43
37298;BME280;30517;51.932;4.278;2023-04-24T10:17:02;100767.28;;;12.49;58.29
37298;BME280;30517;51.932;4.278;2023-04-24T10:19:45;100667.34;;;11.98;58.22
37298;BME280;30517;51.932;4.278;2023-04-24T10:22:26;100739.13;;;12.42;58.46
37298;BME280;30517;51.932;4.278;2023-04-24T10:25:10;100772.44;;;12.61;58.47
37298;BME280;30517;51.932;4.278;2023-04-24T10:27:52;100743.53;;;12.43;58.49
37298;BME280;30517;51.932;4.278;2023-04-24T10:30:38;100780.66;;;12.35;57.77
37298;BME280;30517;51.932;4.278;2023-04-24T10:33:22;100749.09;;;12.15;57.84
37298;BME280;30517;51.932;4.278;2023-04-24T10:36:04;100753.63;;;12.04;56.90
37298;BME280;30517;51.932;4.278;2023-04-24T10:38:46;100757.06;;;12.13;57.13
37298;BME280;30517;51.932;4.278;2023-04-24T10:41:30;100771.94;;;12.27;57.63
37298;BME280;30517;51.932;4.278;2023-04-24T10:44:13;100804.22;;;12.55;58.22
37298;BME280;30517;51.932;4.278;2023-04-24T10:46:55;100750.78;;;12.25;57.70
37298;BME280;30517;51.932;4.278;2023-04-24T10:49:36;100706.13;;;11.98;57.44
37298;BME280;30517;51.932;4.278;2023-04-24T10:52:17;100817.38;;;12.64;57.12
37298;BME280;30517;51.932;4.278;2023-04-24T10:55:01;100820.00;;;12.66;57.70
37298;BME280;30517;51.932;4.278;2023-04-24T10:58:01;100798.06;;;12.54;58.13
37298;BME280;30517;51.932;4.278;2023-04-24T11:00:43;100776.06;;;12.49;57.76
37298;BME280;30517;51.932;4.278;2023-04-24T11:03:32;100820.94;;;12.61;57.64
37298;BME280;30517;51.932;4.278;2023-04-24T11:06:14;100804.28;;;12.52;58.35
37298;BME280;30517;51.932;4.278;2023-04-24T11:09:02;100836.69;;;12.72;57.91
37298;BME280;30517;51.932;4.278;2023-04-24T11:11:46;100689.50;;;11.83;58.11
37298;BME280;30517;51.932;4.278;2023-04-24T11:14:27;100848.13;;;12.77;57.74
37298;BME280;30517;51.932;4.278;2023-04-24T11:17:08;100836.00;;;12.55;57.85
37298;BME280;30517;51.932;4.278;2023-04-24T11:19:50;100880.72;;;12.81;57.96
37298;BME280;30517;51.932;4.278;2023-04-24T11:22:33;100854.19;;;12.82;58.22
37298;BME280;30517;51.932;4.278;2023-04-24T11:25:16;100794.72;;;12.38;58.29
37298;BME280;30517;51.932;4.278;2023-04-24T11:28:05;100878.03;;;12.82;57.63
37298;BME280;30517;51.932;4.278;2023-04-24T11:30:46;100811.34;;;12.50;57.48
37298;BME280;30517;51.932;4.278;2023-04-24T11:33:27;100877.13;;;12.87;57.60
37298;BME280;30517;51.932;4.278;2023-04-24T11:36:08;100877.97;;;12.89;57.81
37298;BME280;30517;51.932;4.278;2023-04-24T11:38:52;100672.88;;;11.70;57.55
37298;BME280;30517;51.932;4.278;2023-04-24T11:41:33;100881.47;;;12.91;57.73
37298;BME280;30517;51.932;4.278;2023-04-24T11:44:14;100911.41;;;12.97;57.54
37298;BME280;30517;51.932;4.278;2023-04-24T11:46:56;100861.34;;;12.77;57.64
37298;BME280;30517;51.932;4.278;2023-04-24T11:49:37;100922.00;;;12.96;58.11
37298;BME280;30517;51.932;4.278;2023-04-24T11:52:19;100665.88;;;11.63;57.80
37298;BME280;30517;51.932;4.278;2023-04-24T11:55:00;100865.66;;;12.84;57.90
37298;BME280;30517;51.932;4.278;2023-04-24T11:57:44;100891.97;;;13.00;57.82
37298;BME280;30517;51.932;4.278;2023-04-24T12:00:28;100758.78;;;12.19;57.91
37298;BME280;30517;51.932;4.278;2023-04-24T12:03:15;100913.13;;;13.03;57.79
37298;BME280;30517;51.932;4.278;2023-04-24T12:06:05;100868.38;;;12.78;57.78
37298;BME280;30517;51.932;4.278;2023-04-24T12:08:47;100908.66;;;13.06;58.03
37298;BME280;30517;51.932;4.278;2023-04-24T12:11:28;100871.16;;;12.66;57.61
37298;BME280;30517;51.932;4.278;2023-04-24T12:14:11;100919.34;;;12.96;57.97
37298;BME280;30517;51.932;4.278;2023-04-24T12:16:54;100919.16;;;13.14;57.68
37298;BME280;30517;51.932;4.278;2023-04-24T12:19:35;100922.69;;;13.15;57.94
37298;BME280;30517;51.932;4.278;2023-04-24T12:22:16;100925.31;;;13.15;57.87
37298;BME280;30517;51.932;4.278;2023-04-24T12:25:00;100923.53;;;13.18;58.14
37298;BME280;30517;51.932;4.278;2023-04-24T12:27:41;100880.56;;;12.95;57.93
37298;BME280;30517;51.932;4.278;2023-04-24T12:30:27;100807.81;;;12.51;58.22
37298;BME280;30517;51.932;4.278;2023-04-24T12:33:09;100729.84;;;12.04;58.22
37298;BME280;30517;51.932;4.278;2023-04-24T12:35:53;100932.28;;;13.25;57.97
37298;BME280;30517;51.932;4.278;2023-04-24T12:38:35;100952.69;;;13.18;58.06
37298;BME280;30517;51.932;4.278;2023-04-24T12:41:20;100966.69;;;13.30;58.08
37298;BME280;30517;51.932;4.278;2023-04-24T12:44:01;100845.47;;;12.74;57.59
37298;BME280;30517;51.932;4.278;2023-04-24T12:46:44;100713.25;;;11.89;57.99
37298;BME280;30517;51.932;4.278;2023-04-24T12:49:25;100944.56;;;13.37;58.06
37298;BME280;30517;51.932;4.278;2023-04-24T12:52:06;100869.22;;;12.83;57.68
37298;BME280;30517;51.932;4.278;2023-04-24T12:54:47;100948.03;;;13.39;57.66
37298;BME280;30517;51.932;4.278;2023-04-24T12:57:30;100877.91;;;12.95;58.00
37298;BME280;30517;51.932;4.278;2023-04-24T13:00:11;100951.53;;;13.42;57.52
37298;BME280;30517;51.932;4.278;2023-04-24T13:02:52;100802.44;;;12.58;57.58
37298;BME280;30517;51.932;4.278;2023-04-24T13:05:33;100877.06;;;12.90;57.68
37298;BME280;30517;51.932;4.278;2023-04-24T13:08:14;100965.72;;;13.40;57.63
37298;BME280;30517;51.932;4.278;2023-04-24T13:10:55;100986.78;;;13.49;57.83
37298;BME280;30517;51.932;4.278;2023-04-24T13:13:35;100930.66;;;13.13;57.73
37298;BME280;30517;51.932;4.278;2023-04-24T13:16:16;100982.31;;;13.54;58.10
37298;BME280;30517;51.932;4.278;2023-04-24T13:18:57;100949.84;;;13.35;57.60
37298;BME280;30517;51.932;4.278;2023-04-24T13:21:38;100879.59;;;13.00;58.07
37298;BME280;30517;51.932;4.278;2023-04-24T13:24:19;100977.84;;;13.58;57.76
37298;BME280;30517;51.932;4.278;2023-04-24T13:27:01;100955.09;;;13.40;57.69
37298;BME280;30517;51.932;4.278;2023-04-24T13:29:42;100982.25;;;13.59;57.32
37298;BME280;30517;51.932;4.278;2023-04-24T13:32:23;100987.53;;;13.60;57.63
37298;BME280;30517;51.932;4.278;2023-04-24T13:35:05;100982.34;;;13.51;57.45
37298;BME280;30517;51.932;4.278;2023-04-24T13:37:46;100717.44;;;12.09;57.76
37298;BME280;30517;51.932;4.278;2023-04-24T13:40:27;100927.88;;;13.27;57.88
37298;BME280;30517;51.932;4.278;2023-04-24T13:43:10;100966.59;;;13.39;57.76
37298;BME280;30517;51.932;4.278;2023-04-24T13:45:52;101001.59;;;13.65;57.52
37298;BME280;30517;51.932;4.278;2023-04-24T13:48:33;100821.78;;;12.65;57.48
37298;BME280;30517;51.932;4.278;2023-04-24T13:51:14;100977.91;;;13.53;57.45
37298;BME280;30517;51.932;4.278;2023-04-24T13:53:55;100957.69;;;13.46;57.45
37298;BME280;30517;51.932;4.278;2023-04-24T13:56:36;100988.28;;;13.70;57.34
37298;BME280;30517;51.932;4.278;2023-04-24T13:59:19;101015.69;;;13.70;57.35
37298;BME280;30517;51.932;4.278;2023-04-24T14:02:01;100995.38;;;13.69;57.42
37298;BME280;30517;51.932;4.278;2023-04-24T14:04:42;100931.31;;;13.34;57.17
37298;BME280;30517;51.932;4.278;2023-04-24T14:07:23;100997.13;;;13.70;57.32